Aviation Digital Data Service (ADDS)

Output produced by METARs form (1320 UTC 26 March 2019)
found at http://www.aviationweather.gov/metar/data/
 
FSIA 261300Z 34008KT 9999 FEW031 31/26 Q1010 NOSIG
TAF FSIA 261103Z 2612/2712 32007KT 9999 SCT024